Time;durP1;ratioP1;P1;durP2;ratioP2;P2;SDS_P1;SDS_P2;PMS_P1;PMS_P2;Temp;Humidity;BMP_temperature;BMP_pressure;BME280_temperature;BME280_humidity;BME280_pressure;Samples;Min_cycle;Max_cycle;Signal;HPM_P1;HPM_P2
2021/08/11 00:00:26;;;;;;;3.67;2.22;;;16.70;71.80;;;;;;5050766;28;20551;-80
2021/08/11 00:02:51;;;;;;;2.70;1.83;;;16.70;71.80;;;;;;5051694;28;20039;-80
2021/08/11 00:05:17;;;;;;;2.67;1.98;;;16.60;71.80;;;;;;5050554;28;20040;-80
2021/08/11 00:07:42;;;;;;;2.78;1.80;;;16.60;72.00;;;;;;5048890;28;20036;-80
2021/08/11 00:10:09;;;;;;;3.83;2.30;;;16.60;72.00;;;;;;5048189;28;20045;-80
2021/08/11 00:12:35;;;;;;;2.53;2.13;;;16.50;72.00;;;;;;5047269;28;20029;-80
2021/08/11 00:15:00;;;;;;;3.53;2.20;;;16.60;72.10;;;;;;5044232;28;20448;-79
2021/08/11 00:17:26;;;;;;;3.33;2.05;;;16.50;72.20;;;;;;5049380;28;20107;-80
2021/08/11 00:19:52;;;;;;;3.78;2.38;;;16.50;72.40;;;;;;5043135;28;20083;-80
2021/08/11 00:22:18;;;;;;;3.13;2.38;;;16.50;72.40;;;;;;5051071;28;20131;-80
2021/08/11 00:24:44;;;;;;;2.80;2.00;;;16.50;72.30;;;;;;5059447;28;20107;-79
2021/08/11 00:27:09;;;;;;;3.30;2.20;;;16.50;72.40;;;;;;5052271;28;20025;-80
2021/08/11 00:29:35;;;;;;;2.17;1.80;;;16.50;72.20;;;;;;5052355;28;20029;-80
2021/08/11 00:32:01;;;;;;;2.53;2.17;;;16.50;72.20;;;;;;5052431;28;20040;-80
2021/08/11 00:34:29;;;;;;;3.00;2.05;;;16.50;72.20;;;;;;5047051;28;20038;-80
2021/08/11 00:36:55;;;;;;;3.15;2.05;;;16.50;72.30;;;;;;5044273;28;20025;-79
2021/08/11 00:39:21;;;;;;;2.63;2.00;;;16.40;72.40;;;;;;5046776;28;20513;-80
2021/08/11 00:41:46;;;;;;;3.63;2.10;;;16.40;72.40;;;;;;5043010;28;20090;-83
2021/08/11 00:44:13;;;;;;;3.90;2.10;;;16.40;72.40;;;;;;5046674;28;20028;-80
2021/08/11 00:46:45;;;;;;;2.50;1.95;;;16.40;72.50;;;;;;5048251;28;20105;-80
2021/08/11 00:49:13;;;;;;;;;;;16.30;72.70;;;;;;5052278;28;20029;-80
2021/08/11 00:51:40;;;;;;;2.28;1.77;;;16.30;72.40;;;;;;5044811;28;20007;-79
2021/08/11 00:54:06;;;;;;;3.70;2.42;;;16.30;72.60;;;;;;5043453;28;20043;-80
2021/08/11 00:56:34;;;;;;;3.50;2.20;;;16.30;72.60;;;;;;5048310;28;20124;-80
2021/08/11 00:59:01;;;;;;;2.92;2.15;;;16.30;72.60;;;;;;5049105;28;20026;-79
2021/08/11 01:01:31;;;;;;;3.03;2.20;;;16.20;72.60;;;;;;5043332;28;20040;-80
2021/08/11 01:03:58;;;;;;;2.75;2.10;;;16.20;72.70;;;;;;5047551;28;20391;-80
2021/08/11 01:06:25;;;;;;;2.92;2.10;;;16.10;72.80;;;;;;5043553;28;21829;-80
2021/08/11 01:08:54;;;;;;;2.90;2.53;;;16.10;72.90;;;;;;5044219;28;20147;-80
2021/08/11 01:11:21;;;;;;;4.25;2.80;;;16.10;73.00;;;;;;5054310;28;20087;-80
2021/08/11 01:13:46;;;;;;;3.50;2.53;;;16.10;72.90;;;;;;5041953;28;20438;-81
2021/08/11 01:16:12;;;;;;;5.20;3.20;;;16.10;73.00;;;;;;5044493;28;20017;-80
2021/08/11 01:18:37;;;;;;;3.42;2.60;;;16.10;73.10;;;;;;5041413;28;20034;-80
2021/08/11 01:21:23;;;;;;;3.05;2.47;;;16.10;73.10;;;;;;5034725;28;20124;-82
2021/08/11 01:24:07;;;;;;;3.22;2.60;;;16.10;73.20;;;;;;5050048;28;20518;-80
2021/08/11 01:26:37;;;;;;;3.75;2.83;;;16.00;73.10;;;;;;5045010;28;20025;-80
2021/08/11 01:29:08;;;;;;;3.63;2.63;;;16.00;73.30;;;;;;5044935;28;20061;-80
2021/08/11 01:31:53;;;;;;;4.97;2.65;;;16.00;73.30;;;;;;5048853;28;20025;-79
2021/08/11 01:34:43;;;;;;;4.32;2.85;;;16.00;73.40;;;;;;5049807;28;20029;-80
2021/08/11 01:37:18;;;;;;;5.30;3.17;;;15.90;73.40;;;;;;5050105;28;20021;-79
2021/08/11 01:39:48;;;;;;;4.47;3.20;;;15.90;73.50;;;;;;5048812;28;20021;-78
2021/08/11 01:42:21;;;;;;;4.25;2.75;;;15.90;73.40;;;;;;5051770;28;20044;-79
2021/08/11 01:44:53;;;;;;;4.63;3.10;;;15.90;73.50;;;;;;5045851;28;20483;-80
2021/08/11 01:47:21;;;;;;;;;;;15.80;73.60;;;;;;5050649;28;20059;-80
2021/08/11 01:49:49;;;;;;;3.63;2.90;;;15.80;73.60;;;;;;5047090;28;19908;-80
2021/08/11 01:52:16;;;;;;;4.13;3.30;;;15.70;73.90;;;;;;5052800;28;20032;-80
2021/08/11 01:54:43;;;;;;;4.38;3.53;;;15.70;74.10;;;;;;5050153;28;20108;-80
2021/08/11 01:57:11;;;;;;;5.20;3.60;;;15.70;74.10;;;;;;5047531;28;20021;-80
2021/08/11 01:59:38;;;;;;;5.68;3.50;;;15.70;74.00;;;;;;5050550;28;20025;-81
2021/08/11 02:02:05;;;;;;;4.60;3.28;;;15.80;73.90;;;;;;5049712;28;20033;-81
2021/08/11 02:04:31;;;;;;;4.32;3.42;;;15.80;73.80;;;;;;5048336;28;20064;-82
2021/08/11 02:06:58;;;;;;;3.78;3.15;;;15.70;73.90;;;;;;5049657;28;20025;-81
2021/08/11 02:09:24;;;;;;;5.60;3.65;;;15.70;74.00;;;;;;5057652;28;20052;-81
2021/08/11 02:11:50;;;;;;;4.43;3.40;;;15.70;74.10;;;;;;5043942;28;20044;-81
2021/08/11 02:14:15;;;;;;;6.18;3.70;;;15.70;74.00;;;;;;5043951;28;20032;-81
2021/08/11 02:16:42;;;;;;;5.20;4.05;;;15.70;74.10;;;;;;5042586;28;20434;-80
2021/08/11 02:19:08;;;;;;;4.03;3.35;;;15.70;74.00;;;;;;5044502;28;20108;-80
2021/08/11 02:21:34;;;;;;;4.18;3.40;;;15.70;74.10;;;;;;5043393;28;20017;-80
2021/08/11 02:24:02;;;;;;;6.47;3.50;;;15.70;74.10;;;;;;5050576;28;20032;-80
2021/08/11 02:26:47;;;;;;;5.55;3.92;;;15.60;74.20;;;;;;5044776;28;20029;-80
2021/08/11 02:29:27;;;;;;;4.63;3.85;;;15.60;74.30;;;;;;5048078;28;20021;-80
2021/08/11 02:32:18;;;;;;;4.47;3.53;;;15.70;74.20;;;;;;5051236;28;20048;-80
2021/08/11 02:35:01;;;;;;;6.32;4.45;;;15.70;74.10;;;;;;5060310;28;20025;-80
2021/08/11 02:37:58;;;;;;;5.40;4.15;;;15.60;74.20;;;;;;5047186;28;20029;-80
2021/08/11 02:40:39;;;;;;;6.70;5.22;;;15.60;74.30;;;;;;5041124;28;20319;-79
2021/08/11 02:43:06;;;;;;;5.15;4.38;;;15.60;74.70;;;;;;5041393;28;20021;-80
2021/08/11 02:45:33;;;;;;;6.43;4.82;;;15.60;74.80;;;;;;5049116;28;20120;-80
2021/08/11 02:48:00;;;;;;;6.65;5.35;;;15.60;75.00;;;;;;5043262;28;20021;-80
2021/08/11 02:50:26;;;;;;;6.55;5.20;;;15.70;75.10;;;;;;5045080;28;20087;-80
2021/08/11 02:52:53;;;;;;;5.95;4.70;;;15.70;75.00;;;;;;5043185;28;20044;-80
2021/08/11 02:55:19;;;;;;;6.97;5.18;;;15.70;75.00;;;;;;5046424;28;20023;-79
2021/08/11 02:57:46;;;;;;;5.35;4.10;;;15.70;74.90;;;;;;5044291;28;20052;-80
2021/08/11 03:00:11;;;;;;;5.90;4.63;;;15.60;74.90;;;;;;5044617;28;20025;-79
2021/08/11 03:02:38;;;;;;;5.65;4.55;;;15.60;75.00;;;;;;5039144;28;20361;-80
2021/08/11 03:05:04;;;;;;;5.28;4.43;;;15.60;75.00;;;;;;5048404;28;20027;-80
2021/08/11 03:07:31;;;;;;;5.93;4.85;;;15.60;75.00;;;;;;5043989;28;20028;-79
2021/08/11 03:09:56;;;;;;;5.43;4.80;;;15.60;75.10;;;;;;5040078;28;20021;-80
2021/08/11 03:12:23;;;;;;;6.07;4.95;;;15.50;75.10;;;;;;5049418;28;20037;-81
2021/08/11 03:14:49;;;;;;;6.15;4.93;;;15.50;75.40;;;;;;5047823;28;20071;-81
2021/08/11 03:17:15;;;;;;;6.75;5.40;;;15.50;75.60;;;;;;5043725;28;20048;-81
2021/08/11 03:19:42;;;;;;;6.70;5.35;;;15.50;75.80;;;;;;5049307;28;20434;-82
2021/08/11 03:22:09;;;;;;;6.07;4.80;;;15.60;76.10;;;;;;5043545;28;20082;-81
2021/08/11 03:24:35;;;;;;;6.88;5.38;;;15.60;76.20;;;;;;5044881;28;20031;-81
2021/08/11 03:27:01;;;;;;;7.15;6.18;;;15.60;76.20;;;;;;5033193;28;20022;-81
2021/08/11 03:29:26;;;;;;;7.20;5.80;;;15.70;76.40;;;;;;5049311;28;20033;-81
2021/08/11 03:31:52;;;;;;;7.55;5.63;;;15.70;76.50;;;;;;5050022;28;20021;-81
2021/08/11 03:34:17;;;;;;;6.03;5.03;;;15.70;76.50;;;;;;5049713;28;20032;-80
2021/08/11 03:36:43;;;;;;;6.03;4.65;;;15.80;76.60;;;;;;5048245;28;20021;-80
2021/08/11 03:39:08;;;;;;;6.47;5.20;;;15.80;76.60;;;;;;5044292;28;20503;-81
2021/08/11 03:41:34;;;;;;;7.78;5.60;;;15.80;76.60;;;;;;5049045;28;20049;-81
2021/08/11 03:44:00;;;;;;;7.40;5.75;;;15.80;76.60;;;;;;5045305;28;20025;-80
2021/08/11 03:46:25;;;;;;;7.22;5.57;;;15.80;76.70;;;;;;5047937;28;20053;-81
2021/08/11 03:48:51;;;;;;;8.10;6.15;;;15.80;76.90;;;;;;5045980;28;20057;-80
2021/08/11 03:51:16;;;;;;;7.60;5.32;;;15.80;77.10;;;;;;5046149;28;20017;-80
2021/08/11 03:53:42;;;;;;;6.18;5.03;;;15.80;77.20;;;;;;5044964;28;20090;-79
2021/08/11 03:56:07;;;;;;;6.85;6.03;;;15.80;77.30;;;;;;5046244;28;20434;-80
2021/08/11 03:58:34;;;;;;;6.53;5.60;;;15.80;77.30;;;;;;5042112;28;20032;-80
2021/08/11 04:00:59;;;;;;;9.45;6.55;;;15.90;77.40;;;;;;5049662;28;20025;-81
2021/08/11 04:03:25;;;;;;;6.70;5.57;;;15.90;77.60;;;;;;5050293;28;20032;-81
2021/08/11 04:05:50;;;;;;;6.28;5.15;;;15.90;77.60;;;;;;5052777;28;20371;-81
2021/08/11 04:08:16;;;;;;;6.90;5.35;;;15.90;77.50;;;;;;5047348;28;20029;-80
2021/08/11 04:10:45;;;;;;;6.82;5.28;;;15.90;77.40;;;;;;5053358;28;20428;-80
2021/08/11 04:13:14;;;;;;;6.80;5.55;;;15.90;77.40;;;;;;5045948;28;20036;-80
2021/08/11 04:15:41;;;;;;;6.40;5.28;;;15.80;77.40;;;;;;5050515;28;20021;-81
2021/08/11 04:18:07;;;;;;;7.10;5.35;;;15.80;77.40;;;;;;5053073;28;20033;-81
2021/08/11 04:20:33;;;;;;;7.22;5.82;;;15.80;77.50;;;;;;5051341;28;20051;-81
2021/08/11 04:22:59;;;;;;;7.22;6.07;;;15.70;77.50;;;;;;5052793;28;20558;-80
2021/08/11 04:25:24;;;;;;;7.88;6.45;;;15.70;77.50;;;;;;5052694;28;20029;-80
2021/08/11 04:27:50;;;;;;;8.15;6.25;;;15.70;77.60;;;;;;5042548;28;20032;-81
2021/08/11 04:30:15;;;;;;;6.55;5.57;;;15.80;77.70;;;;;;5059048;28;20025;-81
2021/08/11 04:32:41;;;;;;;8.25;5.57;;;15.70;77.70;;;;;;5051661;28;20045;-80
2021/08/11 04:35:07;;;;;;;8.77;6.15;;;15.80;77.70;;;;;;5058157;28;20033;-80
2021/08/11 04:37:35;;;;;;;9.10;6.72;;;15.80;77.80;;;;;;5048709;28;20033;-79
2021/08/11 04:40:03;;;;;;;7.40;5.85;;;15.80;77.90;;;;;;5050189;28;20446;-78
2021/08/11 04:42:28;;;;;;;8.98;6.30;;;15.80;77.90;;;;;;5048018;28;20029;-79
2021/08/11 04:44:54;;;;;;;10.02;6.60;;;15.90;78.10;;;;;;5048807;28;20033;-81
2021/08/11 04:47:19;;;;;;;8.48;6.18;;;15.90;78.10;;;;;;5046776;28;20071;-81
2021/08/11 04:49:48;;;;;;;7.32;5.90;;;15.90;78.10;;;;;;5049416;28;20151;-79
2021/08/11 04:52:13;;;;;;;7.18;5.65;;;16.00;78.10;;;;;;5051502;28;20032;-80
2021/08/11 04:54:39;;;;;;;7.40;5.82;;;16.00;78.10;;;;;;5049516;28;20021;-80
2021/08/11 04:57:05;;;;;;;8.27;6.10;;;16.00;78.00;;;;;;5048194;28;20506;-79
2021/08/11 04:59:31;;;;;;;7.93;5.50;;;16.10;77.90;;;;;;5037543;28;20021;-81
2021/08/11 05:01:56;;;;;;;6.85;5.25;;;16.20;77.70;;;;;;5047169;28;20025;-79
2021/08/11 05:04:22;;;;;;;7.00;5.80;;;16.20;77.50;;;;;;5049486;28;20163;-80
2021/08/11 05:06:47;;;;;;;5.75;4.65;;;16.30;77.30;;;;;;5047361;28;20111;-79
2021/08/11 05:09:13;;;;;;;7.70;5.38;;;16.30;77.10;;;;;;5056272;28;20041;-80
2021/08/11 05:11:40;;;;;;;6.03;4.68;;;16.40;77.00;;;;;;5047893;28;20506;-79
2021/08/11 05:14:05;;;;;;;9.38;6.28;;;16.40;77.00;;;;;;5048669;28;20116;-79
2021/08/11 05:16:31;;;;;;;5.60;4.82;;;16.40;77.10;;;;;;5047393;28;20033;-79
2021/08/11 05:18:56;;;;;;;8.60;3.72;;;16.40;77.20;;;;;;5045938;28;20090;-79
2021/08/11 05:21:23;;;;;;;35.83;5.53;;;16.40;77.20;;;;;;5040756;28;20500;-78
2021/08/11 05:23:49;;;;;;;12.50;4.20;;;16.30;77.50;;;;;;5044143;28;20028;-79
2021/08/11 05:26:15;;;;;;;11.88;4.03;;;16.30;77.70;;;;;;5046924;28;20094;-79
2021/08/11 05:28:40;;;;;;;17.65;4.22;;;16.30;77.80;;;;;;5050915;28;20021;-81
2021/08/11 05:31:06;;;;;;;13.07;3.88;;;16.30;77.70;;;;;;5042043;28;20037;-81
2021/08/11 05:33:31;;;;;;;13.10;4.43;;;16.40;77.70;;;;;;5043422;28;20041;-81
2021/08/11 05:35:57;;;;;;;6.40;3.60;;;16.50;77.50;;;;;;5045281;28;20029;-81
2021/08/11 05:38:22;;;;;;;22.25;5.28;;;16.60;77.40;;;;;;5037884;28;20484;-81
2021/08/11 05:40:48;;;;;;;12.77;3.75;;;16.70;77.50;;;;;;5049122;28;20025;-80
2021/08/11 05:43:14;;;;;;;14.20;4.38;;;16.80;77.40;;;;;;5044410;28;20600;-80
2021/08/11 05:45:40;;;;;;;7.03;3.63;;;16.80;77.20;;;;;;5045320;28;20081;-81
2021/08/11 05:48:06;;;;;;;9.60;4.53;;;16.80;77.30;;;;;;5045707;28;20033;-80
2021/08/11 05:50:31;;;;;;;9.88;4.57;;;16.90;77.30;;;;;;5043209;28;20391;-81
2021/08/11 05:52:57;;;;;;;11.52;5.13;;;17.00;77.20;;;;;;5047851;28;20047;-81
2021/08/11 05:55:22;;;;;;;13.40;4.88;;;17.10;77.10;;;;;;5037592;28;20033;-80
2021/08/11 05:57:48;;;;;;;5.07;4.18;;;17.40;76.80;;;;;;5043538;28;20036;-80
2021/08/11 06:00:16;;;;;;;6.50;5.80;;;17.60;76.50;;;;;;5045613;28;20104;-80
2021/08/11 06:02:42;;;;;;;6.57;5.22;;;18.20;75.80;;;;;;5037695;28;20506;-81
2021/08/11 06:05:09;;;;;;;6.32;5.05;;;19.00;74.10;;;;;;5049489;28;20415;-81
2021/08/11 06:07:36;;;;;;;5.75;5.10;;;19.90;72.00;;;;;;5049281;28;20032;-80
2021/08/11 06:10:04;;;;;;;6.95;4.85;;;20.50;70.30;;;;;;5049609;28;20027;-80
2021/08/11 06:12:30;;;;;;;6.10;5.22;;;21.10;68.40;;;;;;5047413;28;20259;-80
2021/08/11 06:14:55;;;;;;;5.85;5.03;;;21.80;66.70;;;;;;5048751;28;20120;-80
2021/08/11 06:17:21;;;;;;;7.78;6.30;;;22.60;64.60;;;;;;5047625;28;20506;-80
2021/08/11 06:19:47;;;;;;;6.40;5.40;;;23.20;62.90;;;;;;5049375;28;20498;-80
2021/08/11 06:22:14;;;;;;;5.55;4.45;;;23.90;61.60;;;;;;5043998;28;20107;-81
2021/08/11 06:24:40;;;;;;;6.47;5.25;;;24.70;59.80;;;;;;5047768;28;20036;-81
2021/08/11 06:27:06;;;;;;;7.78;6.57;;;25.30;58.30;;;;;;5048548;28;20017;-80
2021/08/11 06:29:32;;;;;;;6.50;5.03;;;25.60;56.70;;;;;;5048026;28;20021;-80
2021/08/11 06:31:57;;;;;;;6.03;4.80;;;26.00;56.20;;;;;;5045170;28;20033;-80
2021/08/11 06:34:24;;;;;;;6.88;5.32;;;26.60;55.50;;;;;;5050069;28;20522;-80
2021/08/11 06:36:50;;;;;;;5.55;4.60;;;26.80;54.50;;;;;;5043350;28;20397;-80
2021/08/11 06:39:17;;;;;;;6.15;4.75;;;27.10;54.10;;;;;;5044721;28;20040;-80
2021/08/11 06:41:42;;;;;;;7.13;5.38;;;27.60;53.30;;;;;;5043207;28;20094;-80
2021/08/11 06:44:08;;;;;;;5.75;4.93;;;27.70;52.60;;;;;;5042997;28;20473;-80
2021/08/11 06:46:33;;;;;;;7.75;5.97;;;27.70;52.50;;;;;;5045162;28;20025;-80
2021/08/11 06:49:00;;;;;;;6.93;5.35;;;27.20;52.10;;;;;;5040481;28;20040;-81
2021/08/11 06:51:26;;;;;;;7.00;6.03;;;27.30;52.50;;;;;;5046081;28;20048;-81
2021/08/11 06:53:51;;;;;;;7.35;5.20;;;26.20;53.20;;;;;;5046082;28;20384;-82
2021/08/11 06:56:17;;;;;;;8.15;5.60;;;26.40;53.90;;;;;;5046335;28;20051;-81
2021/08/11 06:58:43;;;;;;;6.45;5.20;;;26.80;53.20;;;;;;5046659;28;20029;-81
2021/08/11 07:01:08;;;;;;;8.43;6.32;;;26.60;53.60;;;;;;5045965;28;20079;-82
2021/08/11 07:03:34;;;;;;;6.03;4.90;;;26.30;53.20;;;;;;5045957;28;20094;-82
2021/08/11 07:06:01;;;;;;;6.78;5.25;;;25.70;54.20;;;;;;5044033;28;20040;-81
2021/08/11 07:08:26;;;;;;;5.18;4.20;;;25.40;55.20;;;;;;5045425;28;20041;-83
2021/08/11 07:10:52;;;;;;;7.18;5.43;;;25.30;55.90;;;;;;5046517;28;20135;-82
2021/08/11 07:13:21;;;;;;;6.50;4.82;;;25.30;55.90;;;;;;5040860;28;20050;-81
2021/08/11 07:15:47;;;;;;;4.97;4.47;;;25.60;55.40;;;;;;5036742;28;20027;-81
2021/08/11 07:18:16;;;;;;;5.88;4.80;;;26.00;54.70;;;;;;5036486;28;20387;-82
2021/08/11 07:20:42;;;;;;;5.50;4.05;;;26.40;54.20;;;;;;5041406;28;20116;-81
2021/08/11 07:23:11;;;;;;;4.82;3.75;;;26.80;53.60;;;;;;5046471;28;20442;-79
2021/08/11 07:25:36;;;;;;;4.57;3.72;;;26.90;53.70;;;;;;5045516;28;20020;-77
2021/08/11 07:28:02;;;;;;;4.80;4.07;;;27.00;53.70;;;;;;5045515;28;20115;-78
2021/08/11 07:30:28;;;;;;;6.28;4.22;;;27.10;53.70;;;;;;5043897;28;20021;-78
2021/08/11 07:32:56;;;;;;;6.40;5.13;;;27.10;53.50;;;;;;5044297;28;20495;-76
2021/08/11 07:35:22;;;;;;;5.32;4.38;;;26.80;53.50;;;;;;5051664;28;20121;-77
2021/08/11 07:37:52;;;;;;;4.95;3.95;;;26.50;54.20;;;;;;5048471;28;20067;-79
2021/08/11 07:40:20;;;;;;;5.03;3.90;;;26.30;54.80;;;;;;5048887;28;20160;-77
2021/08/11 07:42:46;;;;;;;7.47;5.70;;;26.10;55.10;;;;;;5048937;28;20028;-77
2021/08/11 07:45:13;;;;;;;5.97;4.78;;;25.90;55.30;;;;;;5047053;28;20116;-77
2021/08/11 07:47:39;;;;;;;5.30;3.80;;;25.70;55.80;;;;;;5049839;28;20525;-78
2021/08/11 07:50:06;;;;;;;4.40;3.38;;;25.80;56.10;;;;;;5048226;28;20017;-78
2021/08/11 07:52:32;;;;;;;7.18;5.00;;;25.90;56.20;;;;;;5045112;28;20037;-77
2021/08/11 07:54:57;;;;;;;5.78;4.18;;;26.00;56.00;;;;;;5047791;28;20017;-77
2021/08/11 07:57:24;;;;;;;4.57;3.00;;;25.80;56.30;;;;;;5052877;28;20055;-77
2021/08/11 07:59:49;;;;;;;7.75;5.55;;;25.80;56.60;;;;;;5047404;28;20021;-77
2021/08/11 08:02:15;;;;;;;5.13;3.97;;;25.60;56.50;;;;;;5045756;28;20490;-78
2021/08/11 08:04:41;;;;;;;4.45;3.30;;;25.20;57.30;;;;;;5047050;28;20037;-78
2021/08/11 08:07:07;;;;;;;4.88;3.47;;;25.10;57.90;;;;;;5051939;28;20029;-77
2021/08/11 08:09:33;;;;;;;7.20;5.05;;;25.00;58.40;;;;;;5040883;28;20529;-77
2021/08/11 08:11:58;;;;;;;5.50;4.25;;;24.80;58.40;;;;;;5049849;28;20025;-77
2021/08/11 08:14:24;;;;;;;7.38;4.68;;;24.50;59.20;;;;;;5048222;28;20057;-78
2021/08/11 08:16:49;;;;;;;5.22;3.95;;;24.30;59.40;;;;;;5047911;28;20044;-78
2021/08/11 08:19:15;;;;;;;8.27;6.30;;;24.20;59.80;;;;;;5050132;28;20050;-77
2021/08/11 08:21:41;;;;;;;6.78;5.32;;;24.00;59.60;;;;;;5049907;28;20029;-78
2021/08/11 08:24:06;;;;;;;7.10;5.28;;;23.70;59.90;;;;;;5052998;28;20032;-82
2021/08/11 08:26:32;;;;;;;7.82;5.43;;;23.50;60.40;;;;;;5046728;28;20029;-76
2021/08/11 08:28:57;;;;;;;7.22;4.85;;;23.40;60.50;;;;;;5047021;28;20796;-77
2021/08/11 08:31:23;;;;;;;7.22;5.45;;;23.40;60.70;;;;;;5049537;28;20025;-76
2021/08/11 08:33:48;;;;;;;10.32;6.80;;;23.40;61.20;;;;;;5048743;28;20041;-77
2021/08/11 08:36:14;;;;;;;7.50;5.13;;;23.20;60.90;;;;;;5045908;28;20037;-76
2021/08/11 08:38:40;;;;;;;6.25;4.22;;;23.30;61.40;;;;;;5048840;28;20231;-76
2021/08/11 08:41:06;;;;;;;6.30;4.53;;;23.30;61.40;;;;;;5051677;28;20423;-76
2021/08/11 08:43:31;;;;;;;10.95;7.10;;;23.50;61.60;;;;;;5049227;28;20164;-81
2021/08/11 08:45:57;;;;;;;9.52;7.30;;;23.60;61.30;;;;;;5041434;28;20044;-76
2021/08/11 08:48:24;;;;;;;9.35;6.45;;;23.50;61.30;;;;;;5049667;28;20086;-78
2021/08/11 08:50:50;;;;;;;7.63;5.60;;;23.40;61.50;;;;;;5050327;28;20036;-77
2021/08/11 08:53:22;;;;;;;9.23;7.18;;;23.40;61.70;;;;;;5048957;28;20503;-78
2021/08/11 08:55:49;;;;;;;7.18;5.75;;;23.40;61.70;;;;;;5048920;28;20032;-76
2021/08/11 08:58:15;;;;;;;6.10;4.93;;;23.40;61.90;;;;;;5050716;28;20486;-76
2021/08/11 09:00:41;;;;;;;3.88;2.95;;;23.60;62.00;;;;;;5049320;28;20119;-77
2021/08/11 09:03:09;;;;;;;7.50;5.13;;;23.70;61.90;;;;;;5043623;28;20033;-77
2021/08/11 09:05:34;;;;;;;9.70;6.32;;;23.60;61.90;;;;;;5050944;28;20483;-79
2021/08/11 09:08:00;;;;;;;7.35;5.25;;;23.50;62.00;;;;;;5051201;28;20040;-77
2021/08/11 09:10:28;;;;;;;8.40;6.18;;;23.40;62.40;;;;;;5049633;28;20174;-78
2021/08/11 09:12:58;;;;;;;9.10;7.35;;;23.50;62.50;;;;;;5048988;28;20094;-76
2021/08/11 09:15:35;;;;;;;10.43;8.20;;;23.40;62.30;;;;;;5050119;28;20032;-76
2021/08/11 09:18:19;;;;;;;8.77;6.00;;;23.20;62.20;;;;;;5046286;28;20388;-77
2021/08/11 09:20:50;;;;;;;6.72;4.88;;;23.00;62.80;;;;;;5047095;28;20021;-76
2021/08/11 09:23:45;;;;;;;6.82;5.65;;;23.10;63.10;;;;;;5045689;28;20376;-76
2021/08/11 09:26:15;;;;;;;6.25;5.13;;;23.20;63.40;;;;;;5045449;28;20052;-77
2021/08/11 09:28:44;;;;;;;7.72;6.35;;;23.40;63.40;;;;;;5047483;28;20242;-78
2021/08/11 09:31:30;;;;;;;8.93;7.05;;;23.40;63.20;;;;;;5049554;28;20013;-77
2021/08/11 09:34:01;;;;;;;7.63;5.80;;;23.40;63.10;;;;;;5048883;28;20045;-77
2021/08/11 09:36:27;;;;;;;9.55;7.53;;;23.30;62.90;;;;;;5048949;28;20029;-78
2021/08/11 09:39:00;;;;;;;9.15;7.22;;;23.30;62.80;;;;;;5049306;28;20429;-78
2021/08/11 09:41:26;;;;;;;5.90;4.78;;;23.20;63.10;;;;;;5049603;28;20026;-77
2021/08/11 09:44:10;;;;;;;6.18;4.65;;;23.20;63.30;;;;;;5052561;28;20025;-78
2021/08/11 09:46:40;;;;;;;8.95;6.45;;;23.50;63.80;;;;;;5052264;28;20495;-78
2021/08/11 09:49:20;;;;;;;7.00;5.20;;;23.70;62.60;;;;;;5052435;28;20031;-78
2021/08/11 09:52:01;;;;;;;6.53;4.70;;;23.80;62.40;;;;;;5052724;28;20029;-77
2021/08/11 09:54:29;;;;;;;4.13;3.47;;;23.90;62.00;;;;;;5052410;28;20420;-78
2021/08/11 09:56:56;;;;;;;4.82;4.05;;;24.10;61.80;;;;;;5050613;28;20021;-77
2021/08/11 09:59:21;;;;;;;5.72;4.65;;;24.20;61.40;;;;;;5052402;28;20025;-78
2021/08/11 10:01:47;;;;;;;4.60;3.90;;;24.30;61.00;;;;;;5052475;28;20364;-78
2021/08/11 10:04:14;;;;;;;3.97;3.13;;;24.30;61.00;;;;;;5051691;28;20029;-79
2021/08/11 10:06:44;;;;;;;4.82;3.70;;;24.30;60.90;;;;;;5051909;28;20075;-77
2021/08/11 10:09:16;;;;;;;5.78;4.13;;;24.30;60.90;;;;;;5052673;28;20108;-77
2021/08/11 10:11:52;;;;;;;4.40;3.47;;;24.30;60.50;;;;;;5050858;28;20071;-77
2021/08/11 10:14:23;;;;;;;5.60;4.10;;;24.20;60.50;;;;;;5052045;28;20029;-78
2021/08/11 10:16:50;;;;;;;6.03;4.45;;;24.20;60.40;;;;;;5051508;28;20029;-77
2021/08/11 10:19:16;;;;;;;5.72;4.13;;;24.10;60.30;;;;;;5051253;28;20031;-78
2021/08/11 10:21:52;;;;;;;6.65;5.30;;;24.00;60.80;;;;;;5052378;28;20053;-77
2021/08/11 10:24:17;;;;;;;4.90;3.80;;;23.90;61.40;;;;;;5052273;28;20051;-77
2021/08/11 10:26:48;;;;;;;6.75;4.50;;;23.90;61.00;;;;;;5052080;28;20025;-78
2021/08/11 10:29:14;;;;;;;6.75;4.57;;;24.00;60.90;;;;;;5052657;28;20025;-79
2021/08/11 10:31:40;;;;;;;5.15;4.43;;;24.10;60.30;;;;;;5051907;28;20025;-77
2021/08/11 10:34:07;;;;;;;4.85;3.53;;;24.10;60.20;;;;;;5052354;28;20132;-77
2021/08/11 10:36:32;;;;;;;4.75;2.80;;;24.10;59.80;;;;;;5051967;28;20021;-77
2021/08/11 10:39:00;;;;;;;3.60;2.50;;;23.90;59.70;;;;;;5051918;28;20028;-76
2021/08/11 10:41:31;;;;;;;2.08;1.85;;;23.90;59.80;;;;;;5052025;28;20082;-75
2021/08/11 10:43:58;;;;;;;3.58;3.28;;;24.10;59.90;;;;;;5052310;28;20021;-78
2021/08/11 10:46:40;;;;;;;3.60;2.53;;;24.20;58.30;;;;;;5051316;28;20013;-76
2021/08/11 10:49:07;;;;;;;3.50;2.60;;;24.30;57.90;;;;;;5051761;28;20029;-76
2021/08/11 10:51:42;;;;;;;3.97;2.90;;;24.50;57.60;;;;;;5051750;28;20056;-77
2021/08/11 10:54:09;;;;;;;4.32;3.58;;;24.60;57.50;;;;;;5051603;28;20075;-75
2021/08/11 10:56:52;;;;;;;4.53;3.60;;;24.80;57.30;;;;;;5051307;28;20036;-75
2021/08/11 10:59:32;;;;;;;4.53;3.60;;;24.90;57.30;;;;;;5050062;28;20116;-76
2021/08/11 11:01:59;;;;;;;5.28;3.80;;;25.00;57.40;;;;;;5050412;28;20025;-75
2021/08/11 11:04:54;;;;;;;3.90;2.95;;;24.90;55.30;;;;;;5051464;28;20029;-76
2021/08/11 11:07:21;;;;;;;5.68;3.30;;;25.00;55.60;;;;;;5036686;28;20033;-76
2021/08/11 11:09:48;;;;;;;4.57;2.90;;;25.00;55.70;;;;;;5051484;28;20013;-75
2021/08/11 11:12:16;;;;;;;5.32;2.40;;;25.20;55.90;;;;;;5051533;28;20066;-76
2021/08/11 11:14:58;;;;;;;2.80;2.33;;;25.40;55.70;;;;;;5051396;28;20368;-76
2021/08/11 11:17:25;;;;;;;2.88;2.38;;;25.50;55.20;;;;;;5051056;28;20071;-76
2021/08/11 11:20:08;;;;;;;5.20;3.92;;;25.60;55.10;;;;;;5051743;28;20085;-76
2021/08/11 11:22:51;;;;;;;4.20;3.15;;;25.50;53.70;;;;;;5058835;28;20470;-77
2021/08/11 11:25:18;;;;;;;3.92;3.20;;;25.30;54.40;;;;;;5069753;28;20013;-76
2021/08/11 11:27:44;;;;;;;3.00;2.65;;;25.30;54.00;;;;;;5070785;28;20025;-76
2021/08/11 11:30:12;;;;;;;2.78;2.25;;;25.40;54.20;;;;;;5071010;28;20425;-76
2021/08/11 11:32:38;;;;;;;2.50;2.00;;;25.40;54.00;;;;;;5070064;28;20077;-76
2021/08/11 11:35:23;;;;;;;2.58;2.20;;;25.50;54.00;;;;;;5070840;28;20429;-76
2021/08/11 11:38:06;;;;;;;3.40;2.90;;;25.50;53.90;;;;;;5069074;28;20025;-77
2021/08/11 11:40:31;;;;;;;4.00;2.60;;;25.60;53.30;;;;;;5071053;28;20062;-77
2021/08/11 11:43:22;;;;;;;3.03;2.28;;;25.70;53.80;;;;;;5071007;28;20052;-76
2021/08/11 11:45:47;;;;;;;2.70;2.40;;;25.70;53.90;;;;;;5070397;28;20028;-77
2021/08/11 11:48:13;;;;;;;3.70;2.60;;;25.80;53.60;;;;;;5071156;28;20517;-76
2021/08/11 11:50:43;;;;;;;2.85;2.40;;;25.90;53.70;;;;;;5069686;28;20112;-76
2021/08/11 11:53:18;;;;;;;3.63;3.30;;;26.10;53.80;;;;;;5069344;28;20036;-76
2021/08/11 11:55:44;;;;;;;3.72;2.63;;;26.40;53.40;;;;;;5070469;28;20017;-76
2021/08/11 11:58:12;;;;;;;5.55;4.35;;;26.60;53.30;;;;;;5070491;28;20036;-77
2021/08/11 12:00:38;;;;;;;3.72;3.20;;;26.40;51.80;;;;;;5070808;28;20049;-77
2021/08/11 12:03:04;;;;;;;5.28;4.78;;;26.50;52.40;;;;;;5070825;28;20079;-77
2021/08/11 12:05:46;;;;;;;2.60;2.35;;;26.50;51.20;;;;;;5069255;28;20497;-75
2021/08/11 12:08:14;;;;;;;3.35;2.63;;;26.50;52.10;;;;;;5070607;28;20086;-76
2021/08/11 12:10:39;;;;;;;2.90;2.30;;;26.50;52.30;;;;;;5069791;28;20017;-75
2021/08/11 12:13:05;;;;;;;2.92;2.28;;;26.40;52.50;;;;;;5070648;28;20044;-75
2021/08/11 12:15:33;;;;;;;2.00;1.80;;;26.40;52.60;;;;;;5070752;28;20050;-76
2021/08/11 12:18:00;;;;;;;2.95;2.47;;;26.50;52.80;;;;;;5070220;28;20383;-76
2021/08/11 12:20:36;;;;;;;2.22;2.03;;;26.50;52.40;;;;;;5072056;28;20020;-76
2021/08/11 12:23:15;;;;;;;2.17;1.98;;;26.70;52.40;;;;;;5074048;28;20025;-75
2021/08/11 12:25:40;;;;;;;2.85;2.17;;;26.70;52.00;;;;;;5072797;28;20032;-75
2021/08/11 12:28:14;;;;;;;2.80;2.10;;;26.80;51.40;;;;;;5073619;28;20375;-76
2021/08/11 12:30:42;;;;;;;3.78;2.35;;;26.80;51.30;;;;;;5073987;28;20467;-76
2021/08/11 12:33:09;;;;;;;3.45;3.08;;;26.70;51.10;;;;;;5074068;28;20032;-76
2021/08/11 12:35:40;;;;;;;3.22;2.80;;;26.70;51.20;;;;;;5074002;28;20093;-76
2021/08/11 12:38:06;;;;;;;4.72;3.00;;;26.70;51.40;;;;;;5073355;28;20093;-76
2021/08/11 12:40:39;;;;;;;3.10;2.80;;;26.70;50.90;;;;;;5073739;28;20490;-76
2021/08/11 12:43:06;;;;;;;2.97;2.45;;;26.70;51.10;;;;;;5072469;28;20027;-76
2021/08/11 12:45:45;;;;;;;2.10;1.90;;;26.80;51.30;;;;;;5072263;28;20383;-76
2021/08/11 12:48:28;;;;;;;4.05;2.40;;;26.80;51.10;;;;;;5073579;28;20024;-76
2021/08/11 12:50:55;;;;;;;2.35;2.15;;;26.90;51.00;;;;;;5073309;28;20035;-76
2021/08/11 12:53:26;;;;;;;3.40;2.10;;;26.90;50.70;;;;;;5071989;28;20040;-76